Weather at Miami International Airport

Public forecast

Using degrees Fahrenheit for public forecast. Weather courtesy of forecast.io.

Current aviation weather report (METAR) for Miami International Airport

Retrieved 2021/07/28 23:53 UTC (23 minutes ago):

KMIA 282353Z 32004KT 10SM FEW030 FEW130 FEW250 30/23 A3003 RMK AO2 SLP169 CB DSNT E T03000228 10328 20278 53004

Aviation forecast (TAF) for Miami International Airport

Retrieved 2021-07-29 00:24 UTC (0 seconds ago):

TAF KMIA 282321Z 2900/3006 VRB03KT P6SM FEW030 SCT050 FM291600 14008KT P6SM VCTS SCT025CB BKN050 FM300200 VRB03KT P6SM SCT030 BKN050